Kezdőlap
METAR-TAF:

METAR-TAF

Repülőterek :

Grant County Airport

Silver City, Új-Mexikó, Amerikai Egyesült Államok

földrajzi szélesség: 32-38N, földrajzi hosszúság: 108-09W, magasság: 1659 m

Jelenlegi meteorológiai megfigyelések

A jelentés 16 perccel ezelõtt készült, 07:55 UTC
Észak-északkeleti szél 6 kt
Hőmérséklet 8°C
Páratartalom 36%
Légköri nyomás 1020 hPa
Látótávolság: 16.1 km
Derült ég

METAR: KSVC 200755Z AUTO 02006KT 10SM CLR 08/M06 A3012 RMK AO2 T00751065

Idő: 02:11 (08:11 UTC)


TAF: hiányzik

Meteorológiai megfigyelések és előrejelzések több, mint 4000 repülőtéren (METAR és TAF jelentéseket).

A térképen piros és sárga pontok jelzik az elérhető meteorológiai állomásokat.

Mozgassa az egeret a pont fölött, hogy megjelenjen az állomás neve.

Azután kattintson az időjárási megfigyelések és előrejelzések megtekintéséhez.

A térkép megváltoztatása: kattintson a fekete keresztel jelölt zöld gombra ráközelítéshez, a vonallal jelölt zöld gombra távolításhoz, vagy a zöld nyilakra a szomszédos térképek eléréséhez.


METAR-TAF: